Time;durP1;ratioP1;P1;durP2;ratioP2;P2;SDS_P1;SDS_P2;PMS_P1;PMS_P2;Temp;Humidity;BMP_temperature;BMP_pressure;BME280_temperature;BME280_humidity;BME280_pressure;Samples;Min_cycle;Max_cycle;Signal;HPM_P1;HPM_P2
2021/05/06 00:09:32;;;;;;;10.70;2.40;;;;;;;5.22;67.34;99606.77;1697235;82;21703;-67
2021/05/06 00:14:54;;;;;;;5.95;2.08;;;;;;;5.25;67.41;99616.19;1815145;77;22778;-67
2021/05/06 00:30:51;;;;;;;8.65;3.40;;;;;;;5.06;67.45;99629.13;1777033;80;21155;-67
2021/05/06 00:32:59;;;;;;;10.32;4.22;;;;;;;5.04;67.47;99629.27;1760838;80;21564;-67
2021/05/06 00:35:29;;;;;;;8.08;3.27;;;;;;;5.09;67.48;99627.50;1756798;81;21522;-67
2021/05/06 00:38:07;;;;;;;;;;;;;;;5.09;67.47;99627.98;1759580;81;21163;-67
2021/05/06 00:40:57;;;;;;;10.63;2.72;;;;;;;5.07;67.46;99629.96;1754757;81;20274;-67
2021/05/06 00:54:25;;;;;;;22.37;5.58;;;;;;;5.01;67.36;99628.75;1695864;84;21129;-67
2021/05/06 01:02:19;;;;;;;9.40;3.00;;;;;;;5.05;67.23;99632.75;1711719;83;21637;-67
2021/05/06 01:04:38;;;;;;;10.88;2.92;;;;;;;5.05;67.16;99636.71;1696147;84;21184;-67
2021/05/06 01:12:11;;;;;;;11.12;3.40;;;;;;;4.93;67.10;99644.52;1804537;77;22348;-64
2021/05/06 01:14:38;;;;;;;5.55;2.00;;;;;;;4.84;67.08;99648.09;1757014;81;21155;-64
2021/05/06 01:17:04;;;;;;;10.53;3.25;;;;;;;4.79;67.08;99641.09;1774398;80;21260;-67
2021/05/06 01:19:31;;;;;;;9.40;3.02;;;;;;;4.75;67.08;99634.48;1758946;80;21049;-66
2021/05/06 01:21:57;;;;;;;12.13;2.87;;;;;;;4.73;67.09;99635.11;1757365;80;21552;-67
2021/05/06 01:24:24;;;;;;;9.58;2.40;;;;;;;4.73;67.12;99639.07;1773551;80;21175;-67
2021/05/06 01:27:08;;;;;;;8.95;2.70;;;;;;;4.70;67.12;99635.42;1788041;80;21092;-67
2021/05/06 01:29:35;;;;;;;12.85;3.25;;;;;;;4.67;67.12;99639.20;1784940;80;21212;-67
2021/05/06 01:32:12;;;;;;;12.63;4.08;;;;;;;4.63;67.17;99646.24;1787486;80;21111;-67
2021/05/06 01:34:26;;;;;;;5.70;2.35;;;;;;;4.59;67.23;99640.92;1779510;80;21135;-67
2021/05/06 01:36:58;;;;;;;7.97;2.20;;;;;;;4.56;67.27;99649.14;1757057;80;21618;-67
2021/05/06 01:47:11;;;;;;;5.00;2.17;;;;;;;4.47;67.52;99655.66;1764241;80;21580;-67
2021/05/06 02:00:03;;;;;;;8.45;3.10;;;;;;;4.42;67.97;99651.33;1757949;80;21590;-66
2021/05/06 02:02:27;;;;;;;8.23;2.77;;;;;;;4.40;68.04;99651.95;1757285;80;21214;-67
2021/05/06 02:04:54;;;;;;;8.40;2.70;;;;;;;4.39;68.10;99656.91;1780215;80;21588;-67
2021/05/06 02:07:20;;;;;;;8.13;2.42;;;;;;;4.37;68.15;99660.17;1788067;80;21194;-67
2021/05/06 02:09:48;;;;;;;8.40;2.15;;;;;;;4.34;68.21;99659.64;1785852;80;21155;-66
2021/05/06 02:12:16;;;;;;;9.25;2.67;;;;;;;4.32;68.28;99659.80;1787635;80;21130;-67
2021/05/06 02:14:52;;;;;;;9.10;2.08;;;;;;;4.32;68.31;99661.12;1764621;80;21159;-67
2021/05/06 02:17:14;;;;;;;8.35;2.10;;;;;;;4.32;68.35;99663.76;1772544;79;21533;-66
2021/05/06 02:19:44;;;;;;;6.03;2.10;;;;;;;4.30;68.41;99667.02;1757099;80;21143;-67
2021/05/06 02:22:09;;;;;;;8.88;2.62;;;;;;;4.29;68.45;99668.50;1755987;81;21601;-66
2021/05/06 02:24:37;;;;;;;4.50;2.02;;;;;;;4.26;68.50;99676.20;1756162;81;21627;-66
2021/05/06 02:27:04;;;;;;;8.10;2.72;;;;;;;4.23;68.53;99671.23;1755928;81;21131;-66
2021/05/06 02:29:30;;;;;;;5.58;2.15;;;;;;;4.27;68.57;99676.55;1759247;80;21162;-66
2021/05/06 02:31:56;;;;;;;7.25;2.75;;;;;;;4.28;68.59;99676.91;1787299;80;21151;-66
2021/05/06 02:34:23;;;;;;;6.85;3.05;;;;;;;4.26;68.58;99678.84;1770328;80;21563;-66
2021/05/06 02:36:49;;;;;;;7.35;2.22;;;;;;;4.24;68.62;99681.30;1756222;81;21127;-66
2021/05/06 02:39:15;;;;;;;14.75;2.67;;;;;;;4.24;68.62;99680.81;1756299;80;21142;-67
2021/05/06 02:41:42;;;;;;;9.48;2.77;;;;;;;4.22;68.66;99679.30;1768196;80;21127;-66
2021/05/06 02:44:08;;;;;;;10.70;2.40;;;;;;;4.17;68.63;99681.55;1787055;80;22013;-66
2021/05/06 02:46:35;;;;;;;11.33;3.20;;;;;;;4.14;68.65;99687.95;1786924;80;21623;-67
2021/05/06 02:49:01;;;;;;;7.05;2.17;;;;;;;4.11;68.67;99686.93;1787020;80;21123;-66
2021/05/06 02:54:10;;;;;;;8.48;3.00;;;;;;;4.14;68.68;99681.84;1814138;77;23208;-64
2021/05/06 02:56:43;;;;;;;6.83;1.82;;;;;;;4.10;68.66;99681.30;1788200;80;21750;-64
2021/05/06 02:59:20;;;;;;;10.30;2.27;;;;;;;4.11;68.67;99688.73;1786513;80;22250;-66
2021/05/06 03:04:20;;;;;;;9.15;1.90;;;;;;;4.03;68.69;99690.77;1788165;80;21124;-67
2021/05/06 03:09:39;;;;;;;6.35;2.72;;;;;;;4.08;68.73;99695.14;1814763;77;22466;-66
2021/05/06 03:12:20;;;;;;;10.30;2.80;;;;;;;3.99;68.75;99701.27;1775352;80;21155;-67
2021/05/06 03:21:06;;;;;;;8.70;1.98;;;;;;;3.94;68.82;99699.57;1764817;80;21182;-67
2021/05/06 03:25:21;;;;;;;5.95;1.50;;;;;;;3.92;68.84;99696.23;1814741;77;22217;-64
2021/05/06 03:30:34;;;;;;;4.87;1.82;;;;;;;3.84;68.86;99713.25;1766986;80;22124;-66
2021/05/06 03:35:17;;;;;;;10.85;2.30;;;;;;;3.83;68.91;99716.41;1787801;80;21521;-67
2021/05/06 03:43:21;;;;;;;6.65;1.70;;;;;;;3.91;69.03;99717.81;1787619;80;21208;-67
2021/05/06 04:25:40;;;;;;;2.92;1.50;;;;;;;10.27;65.32;99746.38;1793229;80;21166;-67
2021/05/06 04:36:17;;;;;;;6.42;2.62;;;;;;;11.03;62.49;99741.87;1793102;80;21358;-68
2021/05/06 04:38:39;;;;;;;5.50;1.82;;;;;;;11.00;61.66;99741.42;1791475;80;21183;-68
2021/05/06 04:46:47;;;;;;;4.28;1.50;;;;;;;10.83;59.60;99747.50;1797294;79;22079;-65
2021/05/06 05:05:24;;;;;;;5.35;2.10;;;;;;;8.82;58.96;99760.84;1791647;80;21199;-68
2021/05/06 05:07:55;;;;;;;5.22;1.80;;;;;;;8.80;59.04;99762.83;1793707;78;21179;-68
2021/05/06 05:13:07;;;;;;;8.80;2.00;;;;;;;8.98;59.03;99771.38;1794118;78;21136;-68
2021/05/06 05:17:41;;;;;;;8.95;3.83;;;;;;;9.11;58.93;99761.52;1788875;78;21220;-68
2021/05/06 05:20:41;;;;;;;7.05;3.15;;;;;;;9.25;58.75;99757.59;1777123;77;22508;-66
2021/05/06 05:26:07;;;;;;;6.12;2.52;;;;;;;9.03;58.26;99763.72;1798203;78;22823;-68
2021/05/06 05:28:32;;;;;;;3.60;1.70;;;;;;;8.98;58.13;99774.04;1787153;79;21189;-68
2021/05/06 05:30:58;;;;;;;8.03;2.35;;;;;;;9.08;58.05;99770.65;1775702;79;21264;-68
2021/05/06 05:33:26;;;;;;;4.67;2.62;;;;;;;9.06;57.79;99771.34;1784795;79;21238;-68
2021/05/06 05:36:12;;;;;;;6.53;3.02;;;;;;;9.04;57.60;99778.68;1790268;79;21144;-69
2021/05/06 05:38:49;;;;;;;5.50;2.72;;;;;;;9.23;57.55;99770.23;1769218;79;21167;-69
2021/05/06 05:54:40;;;;;;;10.13;3.00;;;;;;;9.52;56.53;99786.33;1757415;81;21125;-68
2021/05/06 05:57:11;;;;;;;7.87;2.30;;;;;;;9.59;56.31;99788.27;1757081;80;21297;-67
2021/05/06 05:59:37;;;;;;;7.00;3.08;;;;;;;9.65;56.20;99779.56;1757067;81;21310;-67
2021/05/06 06:02:04;;;;;;;8.40;2.70;;;;;;;9.63;55.95;99781.59;1757329;81;21143;-68
2021/05/06 06:04:30;;;;;;;6.75;3.05;;;;;;;9.73;55.86;99776.84;1757260;81;21168;-67
2021/05/06 06:06:56;;;;;;;5.55;2.17;;;;;;;9.78;55.76;99777.14;1757261;81;21124;-68
2021/05/06 06:09:23;;;;;;;8.95;2.58;;;;;;;9.86;55.68;99774.38;1759478;80;21197;-67
2021/05/06 06:11:49;;;;;;;13.25;5.28;;;;;;;9.92;55.45;99771.02;1757441;80;21577;-68
2021/05/06 06:14:21;;;;;;;5.67;2.30;;;;;;;9.92;55.27;99787.00;1776274;80;21128;-68
2021/05/06 06:16:43;;;;;;;8.85;3.27;;;;;;;9.89;55.06;99787.33;1766748;80;21156;-67
2021/05/06 06:19:10;;;;;;;9.18;2.35;;;;;;;10.04;55.03;99778.38;1757377;79;21159;-67
2021/05/06 06:24:28;;;;;;;7.00;2.30;;;;;;;10.44;54.88;99782.48;1815531;77;22500;-69
2021/05/06 06:26:54;;;;;;;10.72;2.65;;;;;;;10.42;54.66;99789.82;1763145;80;21701;-69
2021/05/06 06:29:27;;;;;;;5.58;2.25;;;;;;;10.33;54.32;99782.94;1781358;80;21256;-69
2021/05/06 06:31:50;;;;;;;6.33;2.40;;;;;;;10.34;54.23;99773.94;1720933;83;21034;-69
2021/05/06 06:34:16;;;;;;;9.23;2.60;;;;;;;10.32;54.05;99778.61;1719180;83;21545;-68
2021/05/06 06:39:23;;;;;;;5.47;2.87;;;;;;;10.34;53.52;99773.11;1802014;77;22725;-66
2021/05/06 06:41:50;;;;;;;8.53;3.62;;;;;;;10.31;53.44;99778.28;1778726;80;21162;-66
2021/05/06 06:44:19;;;;;;;10.95;4.90;;;;;;;10.41;53.31;99768.16;1772462;81;21193;-69
2021/05/06 06:46:45;;;;;;;6.83;2.40;;;;;;;10.37;53.05;99780.23;1766222;78;21774;-69
2021/05/06 06:49:11;;;;;;;4.83;2.75;;;;;;;10.46;52.96;99774.28;1767473;80;21139;-69
2021/05/06 06:51:38;;;;;;;8.63;2.92;;;;;;;10.55;52.79;99767.03;1784830;80;21166;-69
2021/05/06 06:54:05;;;;;;;8.03;3.10;;;;;;;10.38;52.67;99777.86;1765168;80;21131;-68
2021/05/06 06:56:31;;;;;;;10.20;3.80;;;;;;;10.53;52.62;99774.70;1778380;80;21187;-68
2021/05/06 06:58:58;;;;;;;12.00;3.33;;;;;;;10.60;52.42;99764.63;1772018;78;21167;-68
2021/05/06 07:01:24;;;;;;;5.50;2.62;;;;;;;10.41;52.19;99777.49;1773553;80;21119;-69
2021/05/06 07:03:50;;;;;;;8.15;3.00;;;;;;;9.93;51.98;99771.31;1767273;80;21109;-69
2021/05/06 07:06:17;;;;;;;5.83;2.98;;;;;;;9.83;51.91;99778.23;1779614;80;21136;-69
2021/05/06 07:08:46;;;;;;;11.57;4.08;;;;;;;9.47;51.63;99778.03;1768232;80;21224;-68
2021/05/06 07:11:12;;;;;;;8.90;4.35;;;;;;;9.60;51.52;99773.95;1788306;80;21217;-69
2021/05/06 07:13:38;;;;;;;10.00;4.25;;;;;;;9.89;51.58;99766.02;1789031;80;21172;-69
2021/05/06 07:16:06;;;;;;;10.23;3.90;;;;;;;10.20;51.56;99773.43;1770881;80;21147;-69
2021/05/06 07:18:33;;;;;;;5.90;3.60;;;;;;;10.43;51.36;99770.16;1768475;80;21478;-69
2021/05/06 07:21:00;;;;;;;8.78;4.33;;;;;;;10.56;51.33;99775.33;1734056;80;22095;-69
2021/05/06 07:23:27;;;;;;;9.10;4.12;;;;;;;10.59;51.29;99763.78;1737970;81;21130;-69
2021/05/06 07:25:55;;;;;;;8.20;5.08;;;;;;;10.38;51.15;99765.04;1745811;81;21218;-69
2021/05/06 07:28:25;;;;;;;9.53;4.65;;;;;;;10.21;51.12;99773.73;1747841;81;21597;-69
2021/05/06 07:30:51;;;;;;;7.33;3.90;;;;;;;10.62;51.26;99758.11;1741948;80;21687;-68
2021/05/06 07:33:18;;;;;;;7.30;3.90;;;;;;;10.66;51.12;99766.56;1749637;80;21208;-68
2021/05/06 07:35:44;;;;;;;10.13;3.58;;;;;;;10.51;51.12;99766.08;1756059;80;21167;-68
2021/05/06 07:38:11;;;;;;;5.10;2.87;;;;;;;10.29;51.00;99766.98;1743075;81;21189;-69
2021/05/06 07:40:39;;;;;;;8.95;2.90;;;;;;;10.09;51.01;99772.51;1754351;80;21536;-68
2021/05/06 07:43:07;;;;;;;5.95;2.83;;;;;;;9.81;50.92;99778.11;1755233;81;21158;-68
2021/05/06 07:45:33;;;;;;;7.05;3.02;;;;;;;9.61;50.97;99776.92;1743033;80;22274;-68
2021/05/06 07:48:00;;;;;;;5.15;2.90;;;;;;;9.76;50.96;99765.32;1749808;81;21214;-68
2021/05/06 07:50:27;;;;;;;6.62;3.00;;;;;;;10.22;50.93;99761.23;1756551;81;21520;-68
2021/05/06 07:53:01;;;;;;;11.12;4.05;;;;;;;10.19;50.60;99763.77;1757832;81;21183;-68
2021/05/06 07:55:22;;;;;;;6.70;2.65;;;;;;;10.24;50.54;99769.36;1744641;80;21167;-68
2021/05/06 07:57:48;;;;;;;6.10;2.92;;;;;;;10.31;50.43;99760.95;1756213;81;21616;-68
2021/05/06 08:00:18;;;;;;;7.37;3.25;;;;;;;10.12;50.10;99761.48;1752108;81;21574;-68
2021/05/06 08:02:46;;;;;;;9.28;3.42;;;;;;;10.00;49.98;99769.58;1749820;81;21148;-68
2021/05/06 08:05:12;;;;;;;5.92;2.98;;;;;;;10.05;50.00;99765.88;1753403;81;21192;-68
2021/05/06 08:07:39;;;;;;;8.18;3.22;;;;;;;10.30;49.84;99764.66;1744187;81;21125;-68
2021/05/06 08:10:06;;;;;;;7.47;3.17;;;;;;;10.44;49.69;99761.16;1750685;81;21206;-68
2021/05/06 08:12:32;;;;;;;10.15;3.00;;;;;;;10.69;49.42;99768.86;1748692;81;21175;-68
2021/05/06 08:14:59;;;;;;;8.68;2.92;;;;;;;11.08;49.28;99761.33;1747145;80;21124;-69
2021/05/06 08:17:25;;;;;;;3.80;2.27;;;;;;;11.45;49.11;99760.25;1755842;80;21132;-68
2021/05/06 08:19:51;;;;;;;7.85;2.87;;;;;;;11.70;48.59;99758.01;1755500;81;21521;-68
2021/05/06 08:22:17;;;;;;;9.45;3.12;;;;;;;11.54;48.19;99758.59;1745549;80;21189;-68
2021/05/06 08:24:44;;;;;;;10.08;2.95;;;;;;;11.47;47.90;99757.70;1753292;80;21159;-69
2021/05/06 08:27:11;;;;;;;6.05;2.85;;;;;;;11.67;47.85;99755.22;1745315;81;21147;-68
2021/05/06 08:29:37;;;;;;;4.10;2.42;;;;;;;11.94;47.64;99752.27;1721937;83;21154;-69
2021/05/06 08:32:04;;;;;;;8.33;3.00;;;;;;;11.78;47.26;99757.91;1718047;83;21159;-69
2021/05/06 08:34:31;;;;;;;11.48;4.20;;;;;;;11.76;47.29;99761.27;1713547;83;21207;-69
2021/05/06 08:36:57;;;;;;;21.68;16.42;;;;;;;11.82;46.95;99756.52;1699756;83;21188;-69
2021/05/06 08:39:23;;;;;;;8.05;4.83;;;;;;;11.98;46.91;99752.20;1680050;82;21155;-69
2021/05/06 08:41:50;;;;;;;3.92;2.87;;;;;;;12.26;46.92;99753.02;1692916;84;21144;-69
2021/05/06 08:44:19;;;;;;;6.40;2.90;;;;;;;12.32;46.77;99758.90;1698451;84;21160;-69
2021/05/06 08:47:02;;;;;;;6.80;3.02;;;;;;;12.46;46.66;99757.95;1696256;84;23416;-69
2021/05/06 08:49:13;;;;;;;5.95;2.60;;;;;;;12.46;46.63;99749.93;1692628;84;21184;-69
2021/05/06 08:51:40;;;;;;;5.42;2.90;;;;;;;12.26;46.49;99755.69;1666283;84;21135;-69
2021/05/06 08:54:06;;;;;;;7.40;2.90;;;;;;;12.44;46.57;99754.66;1689003;84;21622;-69
2021/05/06 08:56:33;;;;;;;8.43;3.72;;;;;;;12.27;46.38;99755.17;1683366;84;21216;-69
2021/05/06 08:58:59;;;;;;;8.93;2.70;;;;;;;12.02;46.40;99757.48;1690503;81;21214;-68
2021/05/06 09:01:26;;;;;;;8.25;2.80;;;;;;;12.18;46.29;99757.17;1698169;81;21348;-69
2021/05/06 09:03:52;;;;;;;5.05;3.20;;;;;;;12.01;46.17;99751.81;1692336;81;21457;-68
2021/05/06 09:06:20;;;;;;;6.70;3.22;;;;;;;11.78;45.98;99761.41;1691139;81;21139;-68
2021/05/06 09:08:52;;;;;;;7.70;3.35;;;;;;;11.52;46.03;99762.48;1694253;81;21128;-68
2021/05/06 09:11:31;;;;;;;9.80;4.85;;;;;;;11.33;46.08;99761.26;1686179;81;21311;-68
2021/05/06 09:14:05;;;;;;;5.62;3.20;;;;;;;11.22;46.27;99763.63;1689952;83;21648;-68
2021/05/06 09:16:41;;;;;;;6.37;2.92;;;;;;;11.21;46.39;99761.97;1680819;84;21587;-68
2021/05/06 09:19:12;;;;;;;7.40;3.05;;;;;;;11.66;46.58;99759.41;1675099;84;21799;-68
2021/05/06 09:21:46;;;;;;;7.60;3.37;;;;;;;11.59;46.57;99751.34;1681428;84;21180;-68
2021/05/06 09:24:25;;;;;;;7.25;3.30;;;;;;;11.41;46.67;99754.47;1688640;84;21682;-68
2021/05/06 09:26:57;;;;;;;9.80;4.03;;;;;;;11.18;46.78;99763.17;1686692;84;21169;-67
2021/05/06 09:29:42;;;;;;;21.70;17.23;;;;;;;11.25;47.04;99754.73;1685487;84;21234;-68
2021/05/06 09:32:20;;;;;;;14.23;6.62;;;;;;;11.64;47.20;99753.45;1688916;84;21140;-68
2021/05/06 09:34:49;;;;;;;11.85;7.33;;;;;;;11.64;47.20;99744.10;1688910;84;21144;-68
2021/05/06 09:37:30;;;;;;;12.73;6.28;;;;;;;11.48;47.17;99759.36;1677931;84;21685;-68
2021/05/06 09:40:02;;;;;;;9.53;4.60;;;;;;;11.30;47.31;99759.48;1693320;82;21227;-68
2021/05/06 09:42:44;;;;;;;10.38;4.42;;;;;;;10.91;47.27;99775.88;1698190;82;21578;-67
2021/05/06 09:45:23;;;;;;;12.07;4.87;;;;;;;10.51;47.35;99798.56;1687312;84;21538;-68
2021/05/06 09:48:13;;;;;;;6.07;3.17;;;;;;;9.74;47.62;99812.62;1692905;84;21180;-68
2021/05/06 09:51:03;;;;;;;9.18;3.85;;;;;;;8.79;48.51;99806.39;1800939;77;22763;-68
2021/05/06 09:53:32;;;;;;;4.95;3.60;;;;;;;8.32;49.13;99787.78;1776835;79;21178;-67
2021/05/06 09:56:00;;;;;;;48.25;32.55;;;;;;;8.16;49.70;99765.23;1779505;78;22081;-67
2021/05/06 09:58:31;;;;;;;17.73;13.60;;;;;;;8.47;50.25;99768.81;1782519;79;21183;-67
2021/05/06 10:00:57;;;;;;;;;;;;;;;8.99;50.68;99767.23;1782884;78;21939;-68
2021/05/06 10:03:32;;;;;;;9.83;5.62;;;;;;;9.51;51.11;99754.55;1772548;79;20276;-68
2021/05/06 10:06:16;;;;;;;8.00;4.95;;;;;;;9.92;51.53;99747.05;1776501;79;21478;-68
2021/05/06 10:08:42;;;;;;;5.28;4.10;;;;;;;10.23;51.91;99749.58;1744161;79;21306;-68
2021/05/06 10:11:14;;;;;;;8.75;5.87;;;;;;;10.36;52.26;99750.58;1770659;79;21181;-67
2021/05/06 10:13:43;;;;;;;7.95;5.35;;;;;;;10.37;52.57;99756.75;1774143;78;21172;-68
2021/05/06 10:16:11;;;;;;;8.10;6.10;;;;;;;10.23;52.92;99759.73;1778601;79;21620;-68
2021/05/06 10:18:40;;;;;;;11.43;8.23;;;;;;;9.99;53.36;99773.28;1761285;80;21579;-68
2021/05/06 10:21:09;;;;;;;5.20;3.58;;;;;;;9.70;53.73;99815.30;1762153;80;21205;-68
2021/05/06 10:23:36;;;;;;;4.92;3.25;;;;;;;9.28;54.66;99818.44;1758924;80;21570;-68
2021/05/06 10:26:03;;;;;;;6.45;3.58;;;;;;;8.85;55.45;99825.63;1768576;80;21159;-68
2021/05/06 10:28:35;;;;;;;8.13;3.25;;;;;;;8.59;56.17;99821.06;1763561;80;21181;-68
2021/05/06 10:31:03;;;;;;;4.17;3.30;;;;;;;8.44;57.02;99799.19;1756908;80;21144;-68
2021/05/06 10:33:29;;;;;;;5.03;3.33;;;;;;;8.73;57.63;99792.44;1759276;80;21165;-68
2021/05/06 10:35:58;;;;;;;9.60;4.15;;;;;;;9.09;58.12;99788.27;1762020;80;21148;-67
2021/05/06 10:38:33;;;;;;;3.87;2.45;;;;;;;9.44;58.45;99767.75;1756500;80;21487;-68
2021/05/06 10:41:29;;;;;;;7.35;2.52;;;;;;;9.76;58.63;99752.51;1762730;80;21125;-68
2021/05/06 10:44:03;;;;;;;3.37;2.10;;;;;;;10.13;58.79;99748.49;1760950;80;21160;-68
2021/05/06 10:47:03;;;;;;;4.37;2.50;;;;;;;10.47;58.93;99749.30;1762514;80;21429;-68
2021/05/06 10:49:43;;;;;;;3.77;1.97;;;;;;;10.76;59.08;99738.59;1757529;80;21176;-68
2021/05/06 10:52:10;;;;;;;;;;;;;;;11.06;59.11;99736.66;1778616;79;21167;-68
2021/05/06 10:54:49;;;;;;;3.35;2.33;;;;;;;11.32;59.06;99735.61;1770886;79;20390;-67
2021/05/06 10:57:22;;;;;;;5.37;2.58;;;;;;;11.35;58.91;99740.55;1768471;78;21621;-68
2021/05/06 10:59:49;;;;;;;7.37;2.70;;;;;;;11.30;58.81;99748.80;1764107;79;21200;-68
2021/05/06 11:02:45;;;;;;;9.58;2.45;;;;;;;11.23;58.64;99747.91;1775840;79;21190;-67
2021/05/06 11:05:22;;;;;;;5.33;2.30;;;;;;;11.19;58.50;99752.00;1773434;80;21574;-68
2021/05/06 11:08:09;;;;;;;6.00;2.70;;;;;;;11.12;58.38;99765.25;1768579;79;21199;-68
2021/05/06 11:10:48;;;;;;;4.25;2.85;;;;;;;11.04;58.27;99766.72;1772690;80;21107;-68
2021/05/06 11:13:21;;;;;;;1.37;1.22;;;;;;;10.74;58.15;99819.78;1760394;80;21720;-68
2021/05/06 11:15:48;;;;;;;2.08;1.17;;;;;;;10.07;58.17;99858.92;1757505;80;21185;-68
2021/05/06 11:18:43;;;;;;;2.72;1.70;;;;;;;8.94;58.68;99868.45;1765417;78;21123;-68
2021/05/06 11:21:10;;;;;;;3.67;2.25;;;;;;;8.19;59.43;99845.40;1769079;80;21151;-68
2021/05/06 11:23:36;;;;;;;6.20;3.58;;;;;;;7.62;60.02;99824.67;1775791;78;21121;-68
2021/05/06 11:26:10;;;;;;;5.53;2.95;;;;;;;7.52;60.37;99814.23;1776956;80;21268;-67
2021/05/06 11:28:39;;;;;;;4.03;1.80;;;;;;;7.64;60.65;99808.56;1775200;80;21131;-67
2021/05/06 11:31:05;;;;;;;2.40;1.85;;;;;;;7.97;60.91;99811.55;1767285;80;21548;-67
2021/05/06 11:33:31;;;;;;;3.42;1.57;;;;;;;8.33;61.15;99794.27;1770665;79;21204;-67
2021/05/06 11:36:19;;;;;;;2.72;1.70;;;;;;;8.73;61.32;99796.42;1772824;78;21169;-68
2021/05/06 11:38:51;;;;;;;2.67;1.35;;;;;;;8.90;61.48;99800.70;1756558;81;22136;-68
2021/05/06 11:41:30;;;;;;;5.05;1.65;;;;;;;9.20;61.74;99788.37;1787670;80;21116;-68
2021/05/06 11:44:02;;;;;;;4.72;1.85;;;;;;;9.43;61.98;99786.05;1781495;79;21129;-67
2021/05/06 11:46:43;;;;;;;3.20;1.82;;;;;;;9.70;62.23;99765.22;1755162;81;21592;-67
2021/05/06 11:49:12;;;;;;;;;;;;;;;9.96;62.37;99746.48;1770018;80;21160;-68
2021/05/06 11:51:42;;;;;;;2.80;1.50;;;;;;;10.25;62.57;99741.71;1777456;79;21190;-68
2021/05/06 11:54:19;;;;;;;2.12;1.35;;;;;;;10.48;62.65;99726.43;1767070;80;21676;-68
2021/05/06 11:56:53;;;;;;;2.08;1.15;;;;;;;10.74;62.62;99737.11;1779533;79;21104;-68
2021/05/06 11:59:26;;;;;;;2.17;1.05;;;;;;;10.91;62.65;99736.70;1762431;78;21209;-68
2021/05/06 12:01:53;;;;;;;6.20;5.03;;;;;;;11.09;62.66;99722.93;1763927;80;21141;-68
2021/05/06 12:04:27;;;;;;;3.22;1.80;;;;;;;11.15;62.56;99726.70;1772129;80;22053;-68
2021/05/06 12:06:54;;;;;;;3.90;1.52;;;;;;;11.21;62.52;99709.42;1777592;80;21171;-68
2021/05/06 12:09:27;;;;;;;3.27;1.50;;;;;;;11.45;62.47;99712.19;1775072;78;21628;-68
2021/05/06 12:11:53;;;;;;;2.42;1.30;;;;;;;11.71;62.34;99708.95;1756870;80;21233;-68
2021/05/06 12:14:36;;;;;;;4.15;2.33;;;;;;;11.88;62.09;99711.64;1774986;80;21119;-68
2021/05/06 12:17:06;;;;;;;4.17;1.25;;;;;;;11.89;61.74;99714.64;1787703;80;21188;-68
2021/05/06 12:19:43;;;;;;;5.55;2.33;;;;;;;11.77;61.30;99706.83;1787506;80;21170;-68
2021/05/06 12:22:09;;;;;;;8.05;2.33;;;;;;;11.79;60.88;99700.77;1785658;80;21230;-68
2021/05/06 12:24:41;;;;;;;5.30;1.37;;;;;;;11.78;60.33;99707.16;1755513;81;21577;-68
2021/05/06 12:27:27;;;;;;;3.08;1.70;;;;;;;11.78;59.95;99705.82;1768872;80;21148;-68
2021/05/06 12:30:03;;;;;;;8.53;3.12;;;;;;;11.77;59.63;99710.84;1749432;80;22104;-68
2021/05/06 12:32:31;;;;;;;2.92;1.12;;;;;;;11.77;59.38;99712.17;1757633;80;21156;-68
2021/05/06 12:34:57;;;;;;;3.83;2.00;;;;;;;11.57;59.06;99714.67;1752037;80;21120;-67
2021/05/06 12:37:28;;;;;;;6.05;1.98;;;;;;;11.37;58.91;99717.16;1748352;82;21146;-67
2021/05/06 12:39:55;;;;;;;4.72;1.95;;;;;;;11.13;58.74;99734.88;1751409;80;21140;-67
2021/05/06 12:42:33;;;;;;;11.63;4.33;;;;;;;10.81;58.37;99755.34;1754420;80;21253;-67
2021/05/06 12:44:59;;;;;;;15.83;8.20;;;;;;;10.27;58.43;99753.53;1764451;80;21165;-67
2021/05/06 12:47:31;;;;;;;6.45;2.42;;;;;;;9.77;58.82;99747.52;1769459;80;21136;-68
2021/05/06 12:50:22;;;;;;;3.27;1.95;;;;;;;9.57;59.30;99746.38;1755653;80;21104;-68
2021/05/06 12:52:50;;;;;;;3.85;2.72;;;;;;;9.39;59.70;99759.45;1763327;80;21163;-68
2021/05/06 12:55:22;;;;;;;8.65;4.37;;;;;;;9.28;60.13;99741.27;1734184;80;21212;-68
2021/05/06 12:58:14;;;;;;;4.35;2.22;;;;;;;9.25;60.48;99741.63;1743932;81;21192;-68
2021/05/06 13:00:46;;;;;;;2.22;1.60;;;;;;;9.35;60.90;99739.55;1728433;81;21167;-68
2021/05/06 13:03:32;;;;;;;4.22;2.42;;;;;;;9.64;61.34;99730.00;1795381;77;22755;-67
2021/05/06 13:06:10;;;;;;;5.45;3.15;;;;;;;9.73;61.73;99731.57;1766410;80;21607;-67
2021/05/06 13:08:42;;;;;;;6.03;4.00;;;;;;;9.83;62.05;99724.15;1770199;80;21302;-67
2021/05/06 13:11:12;;;;;;;4.87;2.42;;;;;;;9.77;62.28;99715.06;1783565;80;21227;-67
2021/05/06 13:13:47;;;;;;;5.25;2.95;;;;;;;9.74;62.51;99710.11;1778106;80;21156;-67
2021/05/06 13:16:18;;;;;;;6.65;2.27;;;;;;;9.85;62.68;99695.52;1770284;80;21197;-67
2021/05/06 13:18:59;;;;;;;6.03;2.65;;;;;;;9.97;62.76;99688.71;1772075;80;21633;-67
2021/05/06 13:21:25;;;;;;;14.68;6.78;;;;;;;10.07;62.79;99689.26;1767905;80;21553;-68
2021/05/06 13:23:54;;;;;;;7.33;3.85;;;;;;;10.27;62.82;99683.74;1778897;80;21170;-67
2021/05/06 13:26:38;;;;;;;5.12;3.35;;;;;;;10.39;62.82;99686.74;1773922;80;26360;-67
2021/05/06 13:29:15;;;;;;;8.15;3.40;;;;;;;10.58;62.82;99684.00;1777097;80;21526;-68
2021/05/06 13:31:45;;;;;;;7.55;4.10;;;;;;;10.72;62.72;99672.48;1777721;80;21158;-68
2021/05/06 13:34:21;;;;;;;11.15;4.33;;;;;;;10.86;62.67;99667.60;1779286;79;22401;-67
2021/05/06 13:37:03;;;;;;;6.72;2.52;;;;;;;11.02;62.60;99672.67;1770204;80;21627;-67
2021/05/06 13:39:33;;;;;;;4.80;2.22;;;;;;;11.15;62.55;99674.16;1777370;80;21598;-68
2021/05/06 13:41:59;;;;;;;;;;;;;;;11.23;62.47;99662.00;1775354;80;21185;-67
2021/05/06 13:44:28;;;;;;;5.53;2.72;;;;;;;11.31;62.36;99657.86;1774610;80;20242;-67
2021/05/06 13:46:57;;;;;;;11.20;3.10;;;;;;;11.38;62.28;99650.73;1682850;83;21625;-67
2021/05/06 13:49:30;;;;;;;9.88;4.97;;;;;;;11.51;62.15;99648.16;1705177;83;21169;-67
2021/05/06 13:51:58;;;;;;;24.87;9.80;;;;;;;11.64;62.07;99649.29;1707660;83;21700;-67
2021/05/06 13:54:28;;;;;;;5.60;2.58;;;;;;;11.77;62.03;99652.07;1707555;83;21241;-67
2021/05/06 13:56:55;;;;;;;10.08;3.25;;;;;;;11.76;61.86;99647.73;1713526;83;21166;-67
2021/05/06 13:59:21;;;;;;;3.77;1.95;;;;;;;11.89;61.80;99645.17;1711588;83;21210;-67
2021/05/06 14:01:54;;;;;;;8.25;2.50;;;;;;;12.01;61.59;99632.38;1716031;82;21188;-67
2021/05/06 14:04:20;;;;;;;5.53;2.30;;;;;;;11.99;61.34;99625.09;1721752;82;21616;-67
2021/05/06 14:06:47;;;;;;;70.95;22.82;;;;;;;12.07;61.19;99636.64;1730216;82;21199;-67
2021/05/06 14:09:18;;;;;;;83.95;25.60;;;;;;;12.28;60.87;99626.63;1722713;82;21149;-67
2021/05/06 14:11:45;;;;;;;17.30;6.80;;;;;;;12.25;60.21;99621.69;1746195;81;21230;-67
2021/05/06 14:14:11;;;;;;;5.67;2.62;;;;;;;12.36;59.83;99611.77;1732605;81;21159;-67
2021/05/06 14:16:38;;;;;;;5.35;1.92;;;;;;;12.25;59.24;99611.00;1716774;82;21195;-67
2021/05/06 14:19:11;;;;;;;22.07;6.35;;;;;;;12.10;58.98;99607.66;1753418;81;21553;-67
2021/05/06 14:21:38;;;;;;;7.92;3.12;;;;;;;12.10;58.68;99606.33;1751925;81;21132;-67
2021/05/06 14:24:07;;;;;;;14.05;4.53;;;;;;;12.27;58.15;99599.61;1755391;81;22165;-67
2021/05/06 14:26:34;;;;;;;7.10;2.62;;;;;;;12.40;57.63;99595.63;1751668;81;21142;-67
2021/05/06 14:29:00;;;;;;;11.53;3.65;;;;;;;12.53;56.86;99600.18;1743760;81;21206;-68
2021/05/06 14:31:26;;;;;;;3.70;2.12;;;;;;;12.70;56.57;99593.97;1755917;81;21148;-68
2021/05/06 14:33:52;;;;;;;2.27;1.15;;;;;;;12.78;56.12;99597.77;1747169;81;21576;-68
2021/05/06 14:36:18;;;;;;;5.45;1.30;;;;;;;12.87;55.67;99596.56;1745487;81;21203;-68
2021/05/06 14:38:45;;;;;;;1.85;1.12;;;;;;;12.86;55.25;99591.72;1714905;82;21181;-68
2021/05/06 14:41:11;;;;;;;2.05;1.15;;;;;;;12.82;54.65;99589.64;1721816;82;21184;-68
2021/05/06 14:43:37;;;;;;;4.50;2.25;;;;;;;12.80;54.12;99593.05;1746778;81;21195;-68
2021/05/06 14:46:04;;;;;;;3.77;1.37;;;;;;;12.69;53.31;99605.69;1737646;81;21183;-68
2021/05/06 14:48:30;;;;;;;1.95;0.98;;;;;;;12.69;52.42;99597.66;1716789;83;22053;-67
2021/05/06 14:50:57;;;;;;;3.65;2.15;;;;;;;12.66;51.64;99592.20;1713677;83;21170;-67
2021/05/06 14:53:23;;;;;;;5.15;2.20;;;;;;;12.59;51.28;99595.38;1698094;83;21190;-67
2021/05/06 14:55:50;;;;;;;1.95;1.25;;;;;;;12.31;50.58;99592.84;1698318;83;21635;-68
2021/05/06 14:58:17;;;;;;;4.62;2.20;;;;;;;12.11;50.37;99603.95;1697982;83;21185;-67